This is the latest recevied weather packets stored in our database for station/object W5HKR. If no packets are shown the sender has not sent any weather packets the latest 10 day(s).
| Time | Temp. | Humidity | Pressure | Rain* | Wind** | Luminosity | Snow |
|---|---|---|---|---|---|---|---|
| 1777763897 | 24.44° C | 38% | 991.3 hPa | 0 mm | - | - | - |
| 1777763749 | 18.33° C | 91% | 990.6 hPa | 0 mm | - | - | - |
| 1777763597 | 24.44° C | 36% | 991.2 hPa | 0 mm | - | - | - |
| 1777763296 | 24.44° C | 39% | 990.9 hPa | 0 mm | - | - | - |
| 1777762998 | 24.44° C | 38% | 991.2 hPa | 0 mm | - | - | - |
| 1777762698 | 24.44° C | 37% | 991.3 hPa | 0 mm | - | - | - |
| 1777762667 | 24.44° C | 37% | 991.3 hPa | 0 mm | - | - | - |
| 1777762397 | 18.33° C | 91% | 990.6 hPa | 0 mm | - | - | - |
| 1777762097 | 18.33° C | 91% | 990.6 hPa | 0 mm | - | - | - |
| 1777761797 | 24.44° C | 38% | 990.9 hPa | 0 mm | - | - | - |
| 1777761588 | 18.33° C | 91% | 990.6 hPa | 0 mm | - | - | - |
| 1777761498 | 18.33° C | 91% | 990.6 hPa | 0 mm | - | - | - |
| 1777761197 | 24.44° C | 37% | 991 hPa | 0 mm | - | - | - |
| 1777760897 | 24.44° C | 37% | 991.2 hPa | 0 mm | - | - | - |
| 1777760597 | 25° C | 39% | 990.9 hPa | 0 mm | - | - | - |
| 1777760507 | 18.33° C | 91% | 990.6 hPa | 0 mm | - | - | - |
| 1777760298 | 18.33° C | 91% | 990.6 hPa | 0 mm | - | - | - |
| 1777759997 | 24.44° C | 38% | 991.1 hPa | 0 mm | - | - | - |
| 1777759700 | 18.33° C | 91% | 990.6 hPa | 0 mm | - | - | - |
| 1777759430 | 18.33° C | 91% | 990.6 hPa | 0 mm | - | - | - |
| 1777759398 | 18.33° C | 91% | 990.6 hPa | 0 mm | - | - | - |
| 1777759098 | 18.33° C | 91% | 990.6 hPa | 0 mm | - | - | - |
| 1777758798 | 18.33° C | 91% | 990.6 hPa | 0 mm | - | - | - |
| 1777758497 | 18.33° C | 91% | 990.6 hPa | 0 mm | - | - | - |
| 1777758348 | 25° C | 41% | 991.3 hPa | 0 mm | - | - | - |
* Rain latest hour (hover to see other rain measurements)
** Current wind speed in m/s (hover to see current wind gust speed)